Time;durP1;ratioP1;P1;durP2;ratioP2;P2;SDS_P1;SDS_P2;PMS_P1;PMS_P2;Temp;Humidity;BMP_temperature;BMP_pressure;BME280_temperature;BME280_humidity;BME280_pressure;Samples;Min_cycle;Max_cycle;Signal;HPM_P1;HPM_P2
2021/04/22 00:00:23;;;;;;;16.30;12.02;;;;;;;7.75;69.01;95763.94;5007137;28;20077;-46
2021/04/22 00:02:51;;;;;;;16.15;11.77;;;;;;;7.71;69.35;95761.09;5005707;28;20144;-47
2021/04/22 00:05:26;;;;;;;18.13;12.10;;;;;;;7.79;69.28;95764.88;4991931;28;20065;-50
2021/04/22 00:07:54;;;;;;;15.10;11.88;;;;;;;7.75;69.45;95761.25;4991777;28;20153;-47
2021/04/22 00:10:26;;;;;;;15.27;11.38;;;;;;;7.71;69.44;95759.19;4991917;28;20046;-49
2021/04/22 00:12:52;;;;;;;14.95;10.65;;;;;;;7.85;69.04;95742.06;4997182;28;20046;-49
2021/04/22 00:15:20;;;;;;;17.30;11.50;;;;;;;8.03;68.28;95754.41;4991781;28;20558;-49
2021/04/22 00:17:50;;;;;;;15.00;11.02;;;;;;;8.14;67.80;95749.44;4991683;28;20117;-49
2021/04/22 00:20:16;;;;;;;16.60;11.13;;;;;;;8.30;67.64;95755.13;4991645;28;20051;-46
2021/04/22 00:22:43;;;;;;;14.27;11.57;;;;;;;8.34;67.69;95748.75;4990948;28;20638;-48
2021/04/22 00:25:10;;;;;;;15.15;10.85;;;;;;;8.36;68.04;95749.22;4990654;28;20038;-45
2021/04/22 00:27:37;;;;;;;15.07;11.25;;;;;;;8.61;67.09;95747.59;4991613;28;20054;-46
2021/04/22 00:30:11;;;;;;;15.98;11.38;;;;;;;8.84;66.03;95736.53;4994819;28;20062;-48
2021/04/22 00:32:38;;;;;;;16.05;11.05;;;;;;;8.66;66.09;95739.31;4995177;28;20062;-44
2021/04/22 00:35:07;;;;;;;14.75;11.65;;;;;;;8.67;66.29;95734.69;5010847;28;20121;-44
2021/04/22 00:37:33;;;;;;;19.80;12.40;;;;;;;8.65;66.07;95736.94;5006237;28;20086;-45
2021/04/22 00:40:24;;;;;;;15.13;11.85;;;;;;;8.55;66.98;95740.78;5015107;28;20585;-44
2021/04/22 00:42:51;;;;;;;20.50;11.52;;;;;;;8.46;66.97;95733.84;5004700;28;20042;-47
2021/04/22 00:45:19;;;;;;;14.27;11.57;;;;;;;8.40;67.54;95730.53;4995183;28;20101;-44
2021/04/22 00:47:46;;;;;;;18.48;12.20;;;;;;;8.37;69.91;95741.94;4995511;28;20054;-45
2021/04/22 00:50:17;;;;;;;15.00;11.48;;;;;;;8.67;67.98;95729.31;4994332;28;20058;-45
2021/04/22 00:52:44;;;;;;;13.77;10.75;;;;;;;8.60;68.57;95721.72;4993565;28;20396;-45
2021/04/22 00:55:11;;;;;;;16.38;12.15;;;;;;;8.83;67.95;95732.25;4994257;28;20121;-44
2021/04/22 00:57:43;;;;;;;16.58;12.80;;;;;;;8.81;67.82;95710.22;4995363;28;20392;-44
2021/04/22 01:00:12;;;;;;;14.88;11.82;;;;;;;8.67;69.06;95721.22;5000386;28;20467;-47
2021/04/22 01:02:39;;;;;;;14.80;11.57;;;;;;;8.83;68.63;95716.06;5009822;28;20054;-43
2021/04/22 01:05:10;;;;;;;14.85;10.80;;;;;;;8.80;67.56;95711.31;4994017;28;20051;-44
2021/04/22 01:07:44;;;;;;;15.25;10.82;;;;;;;8.91;67.75;95712.53;4994434;28;20058;-43
2021/04/22 01:10:13;;;;;;;16.17;11.05;;;;;;;8.92;66.62;95703.31;4995378;28;20054;-45
2021/04/22 01:12:42;;;;;;;16.02;11.65;;;;;;;8.85;68.63;95703.84;4994203;28;20049;-44
2021/04/22 01:15:16;;;;;;;14.80;11.20;;;;;;;8.92;67.47;95707.94;4995344;28;20054;-44
2021/04/22 01:17:44;;;;;;;14.05;11.05;;;;;;;8.88;68.89;95708.59;4995182;28;20043;-45
2021/04/22 01:20:21;;;;;;;15.13;11.10;;;;;;;8.84;68.71;95712.28;4995596;28;20448;-44
2021/04/22 01:22:49;;;;;;;15.43;11.10;;;;;;;8.77;66.91;95715.44;4995193;28;20054;-44
2021/04/22 01:25:26;;;;;;;13.95;11.02;;;;;;;8.73;68.56;95728.00;5012927;28;20050;-45
2021/04/22 01:27:53;;;;;;;12.85;10.10;;;;;;;8.44;65.98;95744.94;5013154;28;20124;-46
2021/04/22 01:30:32;;;;;;;11.82;9.25;;;;;;;8.36;67.10;95740.38;5007818;28;20101;-43
2021/04/22 01:32:58;;;;;;;12.82;9.57;;;;;;;8.43;66.73;95743.38;4994118;28;20058;-47
2021/04/22 01:35:33;;;;;;;13.25;9.95;;;;;;;8.48;66.37;95751.28;4994332;28;20049;-46
2021/04/22 01:38:00;;;;;;;14.02;10.20;;;;;;;8.52;66.46;95741.44;4994403;28;20050;-44
2021/04/22 01:40:27;;;;;;;15.93;10.48;;;;;;;8.56;66.66;95742.38;5011243;28;20049;-43
2021/04/22 01:42:54;;;;;;;13.77;9.98;;;;;;;8.56;66.21;95753.16;5008130;28;20057;-44
2021/04/22 01:45:23;;;;;;;13.55;9.57;;;;;;;8.45;66.68;95741.16;4994188;28;20229;-45
2021/04/22 01:47:49;;;;;;;12.88;10.10;;;;;;;8.41;66.96;95737.50;4994185;28;20141;-45
2021/04/22 01:50:19;;;;;;;14.20;10.55;;;;;;;8.37;67.08;95736.53;4994306;28;20081;-44
2021/04/22 01:52:46;;;;;;;12.70;9.88;;;;;;;8.40;66.42;95744.03;4993284;28;20618;-45
2021/04/22 01:55:15;;;;;;;12.70;9.52;;;;;;;8.52;65.69;95738.75;4993968;28;20097;-44
2021/04/22 01:57:42;;;;;;;12.63;9.35;;;;;;;8.66;64.83;95741.22;4994151;28;20058;-44
2021/04/22 02:00:13;;;;;;;10.80;8.15;;;;;;;8.69;64.32;95740.56;5003458;28;20526;-45
2021/04/22 02:02:41;;;;;;;12.35;8.10;;;;;;;8.84;63.39;95734.63;5012873;28;20049;-46
2021/04/22 02:05:10;;;;;;;8.90;6.85;;;;;;;8.93;61.84;95739.19;5013425;28;20566;-48
2021/04/22 02:07:37;;;;;;;8.85;6.93;;;;;;;9.01;61.72;95732.97;5009604;28;20066;-46
2021/04/22 02:10:06;;;;;;;8.65;6.28;;;;;;;9.20;60.71;95736.00;5003355;28;20058;-46
2021/04/22 02:12:32;;;;;;;9.63;7.32;;;;;;;9.28;61.17;95737.06;5011365;28;20053;-51
2021/04/22 02:14:59;;;;;;;7.75;5.63;;;;;;;9.24;59.91;95736.16;4994149;28;20129;-47
2021/04/22 02:17:26;;;;;;;8.00;5.55;;;;;;;9.46;60.19;95733.13;4993912;28;20105;-45
2021/04/22 02:19:52;;;;;;;7.30;5.82;;;;;;;9.55;59.26;95733.84;4994030;28;20065;-47
2021/04/22 02:22:19;;;;;;;8.05;6.03;;;;;;;9.69;58.97;95727.38;4993436;28;20057;-44
2021/04/22 02:24:45;;;;;;;7.65;6.05;;;;;;;9.60;59.20;95725.53;4993713;28;20082;-44
2021/04/22 02:27:12;;;;;;;8.90;5.70;;;;;;;9.76;59.47;95724.94;4993990;28;20051;-44
2021/04/22 02:29:38;;;;;;;7.22;5.70;;;;;;;9.66;59.43;95719.94;4993830;28;20061;-45
2021/04/22 02:32:05;;;;;;;6.90;5.28;;;;;;;9.68;60.30;95723.88;4993299;28;20480;-48
2021/04/22 02:34:31;;;;;;;6.70;5.07;;;;;;;9.63;59.79;95724.09;4993687;28;20043;-46
2021/04/22 02:36:58;;;;;;;8.23;5.57;;;;;;;9.54;60.10;95734.97;4993683;28;20054;-49
2021/04/22 02:39:25;;;;;;;7.30;6.15;;;;;;;9.30;60.57;95729.44;5001861;28;20042;-47
2021/04/22 02:41:52;;;;;;;7.35;6.07;;;;;;;9.34;60.52;95727.66;5012685;28;20054;-50
2021/04/22 02:44:33;;;;;;;8.02;6.15;;;;;;;9.32;60.13;95725.25;4993622;28;20050;-45
2021/04/22 02:46:59;;;;;;;7.13;5.53;;;;;;;9.38;60.28;95723.16;4993538;28;20137;-47
2021/04/22 02:49:26;;;;;;;7.57;6.05;;;;;;;9.15;61.55;95738.09;4993353;28;20085;-49
2021/04/22 02:51:52;;;;;;;7.88;5.70;;;;;;;9.05;61.98;95733.88;4992740;28;20057;-45
2021/04/22 02:54:19;;;;;;;7.45;5.78;;;;;;;9.12;60.94;95734.94;4993314;28;20054;-45
2021/04/22 02:56:45;;;;;;;9.30;6.13;;;;;;;9.17;61.92;95728.56;4993278;28;20105;-44
2021/04/22 02:59:12;;;;;;;9.18;6.43;;;;;;;9.42;59.79;95734.88;5001816;28;20521;-47
2021/04/22 03:01:38;;;;;;;8.57;7.07;;;;;;;9.45;59.87;95736.94;5007875;28;20050;-45
2021/04/22 03:04:05;;;;;;;8.90;7.07;;;;;;;9.25;60.17;95743.91;4993128;28;20078;-46
2021/04/22 03:06:32;;;;;;;8.75;6.80;;;;;;;9.25;60.15;95737.72;4993429;28;20133;-45
2021/04/22 03:08:58;;;;;;;7.88;6.10;;;;;;;9.41;60.72;95744.13;4993041;28;20511;-47
2021/04/22 03:11:25;;;;;;;9.30;6.72;;;;;;;9.30;60.35;95743.72;4993097;28;20050;-48
2021/04/22 03:13:52;;;;;;;9.38;7.40;;;;;;;9.31;60.03;95739.09;4992445;28;20459;-49
2021/04/22 03:16:18;;;;;;;10.88;7.32;;;;;;;9.36;59.93;95741.63;4992991;28;20089;-48
2021/04/22 03:18:45;;;;;;;9.98;7.60;;;;;;;9.19;60.95;95747.13;4992958;28;20047;-48
2021/04/22 03:21:12;;;;;;;8.75;6.88;;;;;;;9.21;60.93;95742.19;4992845;28;20050;-49
2021/04/22 03:23:38;;;;;;;10.60;7.38;;;;;;;9.43;60.50;95749.97;4991342;28;20416;-48
2021/04/22 03:26:05;;;;;;;9.77;7.30;;;;;;;9.27;61.01;95744.38;4991614;28;20461;-46
2021/04/22 03:28:31;;;;;;;12.85;7.45;;;;;;;9.23;61.59;95745.34;4993106;28;20055;-44
2021/04/22 03:30:58;;;;;;;9.48;7.30;;;;;;;9.25;61.14;95748.50;5011480;28;20058;-44
2021/04/22 03:33:24;;;;;;;9.82;7.25;;;;;;;9.12;61.77;95759.22;5011804;28;20056;-45
2021/04/22 03:35:51;;;;;;;9.40;7.20;;;;;;;8.98;62.88;95755.19;5012465;28;20080;-47
2021/04/22 03:38:18;;;;;;;12.65;7.30;;;;;;;8.79;63.99;95774.47;5012285;28;20062;-47
2021/04/22 03:40:45;;;;;;;11.35;8.18;;;;;;;8.52;66.08;95773.00;5010307;28;20050;-43
2021/04/22 03:43:11;;;;;;;9.50;7.85;;;;;;;8.43;66.91;95778.44;5004944;28;20054;-49
2021/04/22 03:45:38;;;;;;;11.77;8.30;;;;;;;8.28;68.53;95776.22;4993225;28;20042;-48
2021/04/22 03:48:05;;;;;;;10.85;8.30;;;;;;;8.20;69.26;95786.69;4992779;28;20150;-49
2021/04/22 03:50:31;;;;;;;12.68;8.75;;;;;;;8.08;70.21;95783.84;4992640;28;20065;-48
2021/04/22 03:52:58;;;;;;;12.48;9.40;;;;;;;8.09;70.58;95790.03;4991984;28;20072;-44
2021/04/22 03:55:24;;;;;;;12.65;10.05;;;;;;;7.92;71.64;95780.06;4992142;28;20061;-46
2021/04/22 03:57:51;;;;;;;13.02;10.20;;;;;;;7.99;71.41;95787.66;4992273;28;20062;-45
2021/04/22 04:00:20;;;;;;;12.90;9.73;;;;;;;7.99;71.65;95791.16;5003165;28;20049;-44
2021/04/22 04:02:47;;;;;;;16.92;10.93;;;;;;;8.09;71.39;95795.41;4991796;28;20145;-49
2021/04/22 04:05:14;;;;;;;14.55;11.20;;;;;;;8.02;71.62;95793.22;4991809;28;20679;-49
2021/04/22 04:07:40;;;;;;;15.55;11.68;;;;;;;7.84;72.17;95789.75;4992469;28;20415;-46
2021/04/22 04:10:09;;;;;;;15.18;11.00;;;;;;;7.68;72.96;95789.44;4992193;28;20121;-44
2021/04/22 04:12:35;;;;;;;16.40;12.45;;;;;;;7.57;73.17;95785.47;4991629;28;20132;-44
2021/04/22 04:15:05;;;;;;;18.10;12.10;;;;;;;7.55;73.62;95787.69;4992206;28;20551;-44
2021/04/22 04:17:32;;;;;;;16.58;11.77;;;;;;;7.50;73.74;95779.75;4992075;28;20053;-44
2021/04/22 04:20:00;;;;;;;16.05;11.73;;;;;;;7.48;73.95;95782.00;5006802;28;20065;-48
2021/04/22 04:22:27;;;;;;;18.60;12.48;;;;;;;7.49;73.93;95778.19;4992270;28;20061;-50
2021/04/22 04:24:53;;;;;;;16.90;11.85;;;;;;;7.60;73.75;95784.81;4990544;28;20060;-45
2021/04/22 04:27:20;;;;;;;15.85;11.77;;;;;;;7.44;74.36;95797.16;4991928;28;20060;-46
2021/04/22 04:29:46;;;;;;;15.52;11.98;;;;;;;7.43;74.31;95791.00;4991805;28;20050;-45
2021/04/22 04:32:13;;;;;;;17.95;11.93;;;;;;;7.60;73.93;95798.28;4991681;28;20054;-50
2021/04/22 04:34:39;;;;;;;16.25;10.95;;;;;;;7.52;74.03;95793.69;4992045;28;20047;-48
2021/04/22 04:37:06;;;;;;;14.65;10.98;;;;;;;7.67;74.04;95805.88;4992291;28;20181;-51
2021/04/22 04:39:32;;;;;;;16.50;12.05;;;;;;;7.76;73.08;95808.59;4998453;28;20451;-48
2021/04/22 04:42:00;;;;;;;15.75;11.45;;;;;;;7.97;72.48;95804.16;5011080;28;20058;-48
2021/04/22 04:44:26;;;;;;;16.60;12.43;;;;;;;8.07;72.00;95819.22;4993854;28;20081;-47
2021/04/22 04:46:53;;;;;;;18.50;13.23;;;;;;;7.97;72.21;95817.63;4991927;28;20081;-48
2021/04/22 04:49:20;;;;;;;17.00;12.75;;;;;;;7.86;72.74;95825.22;4996836;28;20042;-46
2021/04/22 04:51:47;;;;;;;22.58;14.98;;;;;;;7.99;72.32;95817.31;5001594;28;20457;-48
2021/04/22 04:54:13;;;;;;;18.08;12.75;;;;;;;8.05;72.16;95826.81;4993921;28;20073;-45
2021/04/22 04:56:43;;;;;;;17.98;13.48;;;;;;;7.98;72.41;95835.38;5010722;28;20463;-48
2021/04/22 04:59:09;;;;;;;16.30;11.55;;;;;;;7.88;72.81;95827.63;5007802;28;20129;-44
2021/04/22 05:01:37;;;;;;;16.77;12.15;;;;;;;7.83;73.49;95833.16;5006080;28;20124;-47
2021/04/22 05:04:04;;;;;;;17.30;12.00;;;;;;;7.80;73.66;95831.09;5011151;28;20112;-51
2021/04/22 05:06:31;;;;;;;17.30;11.90;;;;;;;7.80;73.66;95834.59;5011386;28;20074;-47
2021/04/22 05:08:57;;;;;;;18.92;12.95;;;;;;;8.11;72.55;95842.50;5002934;28;20050;-49
2021/04/22 05:11:24;;;;;;;22.02;13.07;;;;;;;8.27;71.91;95845.50;5011161;28;20500;-48
2021/04/22 05:13:50;;;;;;;17.27;12.70;;;;;;;8.04;72.36;95852.97;5007536;28;20046;-45
2021/04/22 05:16:17;;;;;;;16.17;12.15;;;;;;;8.03;72.60;95858.69;5012977;28;20050;-45
2021/04/22 05:18:45;;;;;;;18.60;13.07;;;;;;;7.95;72.96;95865.66;5014782;28;20132;-45
2021/04/22 05:21:12;;;;;;;17.92;12.60;;;;;;;8.08;72.49;95864.69;5012070;28;20532;-50
2021/04/22 05:23:39;;;;;;;20.13;13.27;;;;;;;8.04;72.63;95879.13;5012574;28;20622;-46
2021/04/22 05:26:05;;;;;;;16.80;12.77;;;;;;;8.10;72.69;95878.66;5013494;28;20046;-49
2021/04/22 05:28:32;;;;;;;19.58;13.20;;;;;;;8.07;72.59;95887.38;5014484;28;20066;-51
2021/04/22 05:30:58;;;;;;;21.13;13.40;;;;;;;8.15;72.56;95877.69;5001521;28;20129;-49
2021/04/22 05:33:25;;;;;;;19.52;13.43;;;;;;;8.31;71.50;95878.00;5007106;28;20045;-45
2021/04/22 05:35:51;;;;;;;18.85;12.95;;;;;;;7.93;72.70;95881.34;5014696;28;20046;-46
2021/04/22 05:38:18;;;;;;;20.17;13.25;;;;;;;8.11;72.35;95874.03;5014421;28;20046;-45
2021/04/22 05:40:45;;;;;;;17.45;12.52;;;;;;;8.09;72.10;95881.66;5012996;28;20088;-45
2021/04/22 05:43:11;;;;;;;19.27;13.52;;;;;;;8.26;71.55;95887.06;5006884;28;20109;-44
2021/04/22 05:45:39;;;;;;;20.25;13.07;;;;;;;8.33;71.07;95881.19;5006571;23;20502;-49
2021/04/22 05:48:06;;;;;;;20.17;13.40;;;;;;;8.45;70.79;95883.25;4993462;28;20411;-47
2021/04/22 05:50:34;;;;;;;20.63;14.05;;;;;;;8.45;70.59;95884.06;4992739;28;20062;-46
2021/04/22 05:53:02;;;;;;;19.50;13.38;;;;;;;8.60;70.30;95894.31;4992355;28;20081;-48
2021/04/22 05:55:28;;;;;;;19.85;13.55;;;;;;;8.68;70.07;95897.31;4988585;28;20059;-48
2021/04/22 05:57:59;;;;;;;18.17;13.60;;;;;;;8.59;70.12;95890.06;4974399;28;20519;-48
2021/04/22 06:00:28;;;;;;;17.13;12.70;;;;;;;8.46;70.44;95884.84;4974365;28;20514;-46
2021/04/22 06:02:55;;;;;;;17.77;12.77;;;;;;;8.56;69.63;95892.59;4973580;28;20055;-49
2021/04/22 06:05:22;;;;;;;19.73;13.43;;;;;;;8.64;69.59;95892.59;4973395;28;20053;-49
2021/04/22 06:07:48;;;;;;;20.40;13.50;;;;;;;8.62;69.72;95897.50;4974374;28;20050;-47
2021/04/22 06:10:15;;;;;;;17.85;12.73;;;;;;;8.41;70.37;95899.25;4957423;28;20051;-48
2021/04/22 06:12:42;;;;;;;18.50;13.25;;;;;;;8.25;70.79;95898.13;4957107;28;20078;-47
2021/04/22 06:15:10;;;;;;;16.83;12.30;;;;;;;8.44;70.73;95893.22;4974080;28;20042;-46
2021/04/22 06:17:36;;;;;;;21.52;12.82;;;;;;;8.61;69.89;95898.63;4974432;28;20051;-45
2021/04/22 06:20:14;;;;;;;18.95;11.98;;;;;;;8.71;69.81;95899.38;4971978;28;20545;-45
2021/04/22 06:22:41;;;;;;;18.63;12.50;;;;;;;8.78;69.52;95905.09;4961365;28;20058;-45
2021/04/22 06:25:08;;;;;;;18.25;13.63;;;;;;;9.03;68.28;95908.81;4974267;28;20047;-47
2021/04/22 06:27:34;;;;;;;21.90;14.13;;;;;;;8.87;69.26;95913.94;4965588;28;20051;-49
2021/04/22 06:30:01;;;;;;;15.68;12.45;;;;;;;9.03;68.63;95915.00;4973751;28;20047;-48
2021/04/22 06:32:28;;;;;;;20.33;13.43;;;;;;;9.00;69.17;95910.28;4973196;28;20055;-48
2021/04/22 06:34:54;;;;;;;21.10;14.88;;;;;;;9.05;68.74;95918.19;4974395;28;20078;-48
2021/04/22 06:37:22;;;;;;;20.90;14.57;;;;;;;8.96;68.61;95913.91;4979269;28;20046;-49
2021/04/22 06:39:48;;;;;;;24.42;14.40;;;;;;;9.02;68.28;95924.22;4994069;28;20047;-50
2021/04/22 06:42:14;;;;;;;22.30;15.00;;;;;;;9.06;68.32;95914.34;4982691;28;20058;-48
2021/04/22 06:44:42;;;;;;;21.98;14.75;;;;;;;9.46;66.80;95921.38;4973149;28;20566;-50
2021/04/22 06:47:10;;;;;;;23.58;15.10;;;;;;;9.38;66.67;95922.97;4985561;28;20054;-47
2021/04/22 06:49:36;;;;;;;19.27;13.68;;;;;;;9.44;66.86;95923.59;4973679;28;20057;-49
2021/04/22 06:52:04;;;;;;;19.45;15.32;;;;;;;9.48;66.31;95919.13;4978913;28;20081;-50
2021/04/22 06:54:30;;;;;;;19.60;14.13;;;;;;;9.72;65.38;95918.53;4987793;28;20169;-50
2021/04/22 06:56:57;;;;;;;20.38;15.73;;;;;;;9.48;65.87;95922.63;4974632;28;20081;-49
2021/04/22 06:59:23;;;;;;;21.05;15.50;;;;;;;9.57;66.27;95923.38;4973547;28;20121;-51
2021/04/22 07:01:51;;;;;;;23.00;15.38;;;;;;;9.61;65.17;95926.22;4979214;28;20069;-50
2021/04/22 07:04:19;;;;;;;23.58;15.50;;;;;;;9.78;65.50;95928.00;4973131;28;20504;-56
2021/04/22 07:06:46;;;;;;;21.30;15.63;;;;;;;9.84;65.19;95927.50;4973722;28;20046;-54
2021/04/22 07:09:15;;;;;;;19.83;14.98;;;;;;;9.60;65.56;95927.34;4972005;28;20051;-52
2021/04/22 07:11:43;;;;;;;21.55;15.90;;;;;;;9.39;66.30;95934.56;4988171;28;20051;-51
2021/04/22 07:14:10;;;;;;;23.48;16.10;;;;;;;9.31;67.13;95938.91;4977819;28;20065;-52
2021/04/22 07:16:37;;;;;;;23.98;16.40;;;;;;;9.35;67.23;95945.22;4973867;28;20142;-49
2021/04/22 07:19:06;;;;;;;19.30;15.45;;;;;;;9.80;66.07;95929.28;4973579;28;20074;-51
2021/04/22 07:21:33;;;;;;;21.50;16.20;;;;;;;9.94;65.10;95947.94;4973039;28;20042;-52
2021/04/22 07:24:00;;;;;;;21.52;16.15;;;;;;;9.73;66.02;95945.22;4973575;28;20065;-53
2021/04/22 07:26:26;;;;;;;34.90;17.70;;;;;;;9.75;65.91;95952.97;4973279;28;20047;-52
2021/04/22 07:28:53;;;;;;;24.05;16.70;;;;;;;10.06;65.43;95961.56;4972880;28;20121;-52
2021/04/22 07:31:20;;;;;;;19.77;15.60;;;;;;;9.99;63.77;95960.50;4972499;28;20086;-52
2021/04/22 07:33:48;;;;;;;19.33;14.77;;;;;;;10.21;63.74;95971.00;4988690;28;20146;-53
2021/04/22 07:36:17;;;;;;;19.67;14.65;;;;;;;10.50;62.30;95972.91;4968709;28;20042;-50
2021/04/22 07:38:44;;;;;;;20.55;14.88;;;;;;;10.56;61.60;95972.69;4973740;28;20059;-51
2021/04/22 07:41:11;;;;;;;20.30;14.48;;;;;;;10.86;61.62;95976.09;4968183;28;20067;-49
2021/04/22 07:43:38;;;;;;;19.50;14.40;;;;;;;11.03;60.57;95972.44;4968852;28;20744;-48
2021/04/22 07:46:05;;;;;;;20.67;14.80;;;;;;;10.75;60.80;95981.91;4972233;28;20047;-49
2021/04/22 07:48:32;;;;;;;19.50;15.30;;;;;;;10.57;61.29;95974.28;4971105;28;20100;-55
2021/04/22 07:50:59;;;;;;;22.63;16.20;;;;;;;10.64;61.00;95979.94;4969819;28;20489;-51
2021/04/22 07:53:27;;;;;;;27.67;16.30;;;;;;;10.64;61.28;95978.03;4971318;28;20058;-55
2021/04/22 07:55:53;;;;;;;25.30;16.42;;;;;;;10.72;61.22;95976.38;4972272;28;20046;-50
2021/04/22 07:58:20;;;;;;;21.92;15.80;;;;;;;10.71;60.69;95981.00;4973275;28;20047;-50
2021/04/22 08:00:48;;;;;;;23.58;15.77;;;;;;;10.79;61.68;95982.06;4981199;28;20054;-51
2021/04/22 08:03:17;;;;;;;18.80;15.38;;;;;;;10.87;60.68;95981.19;4971206;28;20591;-52
2021/04/22 08:05:45;;;;;;;21.48;15.38;;;;;;;10.80;60.17;95983.63;4972317;28;20058;-55
2021/04/22 08:08:13;;;;;;;22.13;14.95;;;;;;;10.84;60.31;95989.16;4971564;28;20149;-50
2021/04/22 08:10:45;;;;;;;18.95;14.30;;;;;;;11.24;59.44;95981.28;4979882;28;20051;-52
2021/04/22 08:13:14;;;;;;;17.58;14.43;;;;;;;11.13;59.45;95989.03;4970997;28;20488;-50
2021/04/22 08:15:44;;;;;;;20.25;14.80;;;;;;;11.00;59.37;95982.81;4986133;28;20061;-55
2021/04/22 08:18:10;;;;;;;20.25;14.93;;;;;;;11.35;59.02;95993.28;4971950;28;20063;-54
2021/04/22 08:20:38;;;;;;;21.20;15.23;;;;;;;11.45;58.56;95992.06;4971696;28;20105;-50
2021/04/22 08:23:07;;;;;;;17.27;14.80;;;;;;;11.40;58.22;96003.91;4971472;28;20089;-51
2021/04/22 08:25:55;;;;;;;21.30;16.13;;;;;;;11.60;57.55;96009.56;4969055;28;20074;-51
2021/04/22 08:28:24;;;;;;;21.95;16.13;;;;;;;11.61;57.20;96005.75;4971502;28;20349;-52
2021/04/22 08:31:00;;;;;;;19.60;15.65;;;;;;;11.86;56.22;96007.41;4971640;28;20066;-50
2021/04/22 08:33:30;;;;;;;20.00;15.65;;;;;;;11.83;56.89;96013.47;4970740;28;20055;-54
2021/04/22 08:35:57;;;;;;;21.52;16.25;;;;;;;11.67;59.04;96009.84;4972090;28;20543;-54
2021/04/22 08:38:23;;;;;;;23.92;17.13;;;;;;;11.76;59.31;96023.25;4959908;28;20209;-51
2021/04/22 08:40:51;;;;;;;21.30;15.52;;;;;;;11.49;57.55;96014.66;4972188;28;20062;-55
2021/04/22 08:43:18;;;;;;;22.45;17.15;;;;;;;11.61;59.80;96016.59;4971522;28;20458;-52
2021/04/22 08:45:46;;;;;;;19.05;16.27;;;;;;;11.30;60.71;96017.09;4972008;28;20082;-50
2021/04/22 08:48:13;;;;;;;24.63;18.63;;;;;;;11.97;59.57;96028.63;4971340;28;20050;-52
2021/04/22 08:50:44;;;;;;;21.38;17.17;;;;;;;12.14;58.60;96017.56;4974674;28;20059;-53
2021/04/22 08:53:15;;;;;;;21.45;16.95;;;;;;;12.07;57.32;96017.34;4974886;28;20475;-52
2021/04/22 08:55:43;;;;;;;22.65;16.85;;;;;;;11.75;59.04;96027.13;4976199;28;20125;-50
2021/04/22 08:58:09;;;;;;;23.73;17.52;;;;;;;11.95;58.74;96020.81;4973745;28;20054;-51
2021/04/22 09:00:41;;;;;;;21.27;17.55;;;;;;;11.96;57.46;96022.44;4975214;28;20047;-52
2021/04/22 09:03:08;;;;;;;22.40;17.13;;;;;;;11.90;57.35;96029.97;4975141;28;20106;-50
2021/04/22 09:05:34;;;;;;;20.42;16.45;;;;;;;11.98;57.39;96030.22;4975698;28;20386;-51
2021/04/22 09:08:01;;;;;;;22.35;16.85;;;;;;;11.75;57.10;96032.53;4975704;28;20055;-53
2021/04/22 09:10:28;;;;;;;21.55;16.80;;;;;;;11.54;58.60;96022.56;4975042;28;20043;-49
2021/04/22 09:13:07;;;;;;;20.50;17.15;;;;;;;11.65;58.59;96022.91;4974971;28;20050;-52
2021/04/22 09:15:36;;;;;;;24.90;17.60;;;;;;;11.79;58.50;96039.63;4973315;28;20493;-50
2021/04/22 09:18:10;;;;;;;25.13;18.65;;;;;;;12.16;58.34;96037.00;4974548;28;20129;-51
2021/04/22 09:20:40;;;;;;;22.30;17.40;;;;;;;11.87;58.08;96038.78;4972286;28;20059;-49
2021/04/22 09:23:24;;;;;;;22.38;18.10;;;;;;;11.62;59.75;96039.84;4973705;28;20141;-48
2021/04/22 09:26:06;;;;;;;25.83;18.10;;;;;;;11.54;59.74;96030.69;4962169;28;20059;-49
2021/04/22 09:28:43;;;;;;;23.92;18.90;;;;;;;11.67;59.93;96035.00;4974511;28;20077;-49
2021/04/22 09:31:22;;;;;;;21.05;17.77;;;;;;;12.06;57.62;96038.25;4975376;28;20558;-51
2021/04/22 09:34:02;;;;;;;20.42;17.48;;;;;;;12.02;56.57;96029.19;4974634;28;20092;-50
2021/04/22 09:36:50;;;;;;;24.13;17.15;;;;;;;11.95;55.80;96039.81;4974373;28;20102;-49
2021/04/22 09:39:21;;;;;;;21.25;17.15;;;;;;;11.80;55.63;96035.81;4972184;28;20058;-51
2021/04/22 09:41:50;;;;;;;21.58;17.35;;;;;;;12.12;55.35;96036.06;4974209;28;20055;-53
2021/04/22 09:44:18;;;;;;;24.83;17.58;;;;;;;12.26;55.44;96033.81;4970956;28;20061;-53
2021/04/22 09:46:49;;;;;;;24.58;19.15;;;;;;;12.37;55.41;96039.56;4974199;28;20388;-55
2021/04/22 09:49:19;;;;;;;21.77;18.02;;;;;;;12.31;54.41;96028.16;4974743;28;20078;-53
2021/04/22 09:51:48;;;;;;;19.63;16.70;;;;;;;12.45;53.56;96027.03;4973744;28;20054;-50
2021/04/22 09:54:16;;;;;;;24.90;18.15;;;;;;;12.61;53.06;96025.19;4975207;28;20054;-53
2021/04/22 09:56:52;;;;;;;21.02;18.58;;;;;;;12.57;52.95;96038.63;4973699;28;20145;-53
2021/04/22 09:59:22;;;;;;;22.10;17.65;;;;;;;12.52;53.62;96025.31;4974166;28;20481;-51
2021/04/22 10:02:06;;;;;;;23.90;19.00;;;;;;;12.58;53.61;96021.22;4972726;28;20092;-55
2021/04/22 10:04:35;;;;;;;21.88;18.77;;;;;;;12.81;54.12;96026.94;4973223;28;20055;-51
2021/04/22 10:07:04;;;;;;;24.02;20.70;;;;;;;12.84;53.72;96039.06;4974827;28;20055;-53
2021/04/22 10:09:36;;;;;;;23.35;19.80;;;;;;;12.24;55.32;96038.00;4973936;28;20050;-49
2021/04/22 10:12:04;;;;;;;25.67;21.85;;;;;;;12.25;56.10;96040.38;4978784;28;20369;-53
2021/04/22 10:14:37;;;;;;;26.13;22.35;;;;;;;12.38;55.57;96036.53;4974158;28;20043;-53
2021/04/22 10:17:15;;;;;;;26.23;21.83;;;;;;;12.78;53.98;96040.41;4973824;28;20062;-53
2021/04/22 10:19:54;;;;;;;26.70;21.98;;;;;;;12.74;53.76;96034.88;4968647;28;20057;-51
2021/04/22 10:22:39;;;;;;;23.13;20.60;;;;;;;12.35;54.83;96034.50;4974985;28;20118;-49
2021/04/22 10:25:11;;;;;;;26.15;22.58;;;;;;;12.23;55.40;96031.00;4971718;28;20050;-50
2021/04/22 10:27:39;;;;;;;23.65;21.10;;;;;;;12.01;55.78;96037.66;4975173;28;20062;-49
2021/04/22 10:30:13;;;;;;;24.92;21.10;;;;;;;12.26;54.91;96041.97;4961157;28;20102;-49
2021/04/22 10:32:41;;;;;;;29.88;21.17;;;;;;;12.33;54.76;96042.19;4967245;28;20412;-50
2021/04/22 10:35:19;;;;;;;23.83;20.38;;;;;;;12.41;55.08;96029.59;4976436;28;20058;-50
2021/04/22 10:37:47;;;;;;;25.73;20.88;;;;;;;12.28;54.28;96045.09;4974935;28;20058;-46
2021/04/22 10:40:15;;;;;;;27.42;21.83;;;;;;;12.03;56.49;96040.84;4986657;28;20074;-49
2021/04/22 10:42:43;;;;;;;25.42;20.67;;;;;;;12.48;55.74;96043.41;4976547;28;20058;-48
2021/04/22 10:45:14;;;;;;;27.55;22.40;;;;;;;13.24;52.11;96044.47;4993650;28;20054;-48
2021/04/22 10:47:41;;;;;;;29.80;21.48;;;;;;;13.44;50.87;96039.94;4994711;28;20393;-47
2021/04/22 10:50:10;;;;;;;24.65;20.13;;;;;;;12.85;51.25;96046.06;4994350;28;20116;-48
2021/04/22 10:52:41;;;;;;;23.67;21.10;;;;;;;12.26;54.17;96041.97;4988741;28;20046;-47
2021/04/22 10:55:15;;;;;;;25.92;22.98;;;;;;;12.70;53.47;96044.84;4994168;28;20194;-50
2021/04/22 10:57:42;;;;;;;24.25;21.75;;;;;;;12.76;53.06;96038.03;4983392;28;20420;-48
2021/04/22 11:00:12;;;;;;;27.83;22.48;;;;;;;13.15;52.11;96037.56;4973833;28;20058;-46
2021/04/22 11:02:42;;;;;;;26.08;22.65;;;;;;;13.37;51.73;96031.63;4974287;28;20523;-48
2021/04/22 11:05:27;;;;;;;24.70;19.40;;;;;;;13.53;49.18;96042.53;4974061;28;20192;-48
2021/04/22 11:07:58;;;;;;;28.70;21.10;;;;;;;13.76;48.79;96031.84;4972754;28;20071;-48
2021/04/22 11:10:55;;;;;;;24.20;21.45;;;;;;;13.89;49.46;96035.28;4972298;28;20050;-49
2021/04/22 11:13:28;;;;;;;24.95;21.08;;;;;;;13.36;50.33;96040.09;4972207;28;20067;-47
2021/04/22 11:15:54;;;;;;;;;;;;;;;13.11;51.78;96037.47;4974041;28;20094;-48
2021/04/22 11:18:36;;;;;;;27.58;21.25;;;;;;;13.04;51.57;96037.28;4973671;28;19922;-46
2021/04/22 11:21:05;;;;;;;24.33;21.35;;;;;;;12.80;50.75;96030.81;4973317;28;20146;-53
2021/04/22 11:23:40;;;;;;;28.73;22.77;;;;;;;12.65;51.19;96019.88;4973185;28;20457;-50
2021/04/22 11:26:18;;;;;;;30.70;23.20;;;;;;;12.84;50.97;96022.75;4973436;28;20455;-49
2021/04/22 11:28:45;;;;;;;26.98;21.52;;;;;;;13.40;49.69;96024.69;4973823;28;20046;-51
2021/04/22 11:31:16;;;;;;;30.23;22.70;;;;;;;13.07;50.71;96020.28;4973605;28;20407;-52